Time;durP1;ratioP1;P1;durP2;ratioP2;P2;SDS_P1;SDS_P2;PMS_P1;PMS_P2;Temp;Humidity;BMP_temperature;BMP_pressure;BME280_temperature;BME280_humidity;BME280_pressure;Samples;Min_cycle;Max_cycle;Signal;HPM_P1;HPM_P2
2021/08/27 01:35:04;;;;;;;1.80;1.33;;;;;;;17.58;37.61;91922.34;4717815;30;21002;-91
2021/08/27 01:38:09;;;;;;;2.15;1.20;;;;;;;17.64;37.34;91923.63;4719843;30;20480;-92
2021/08/27 01:41:03;;;;;;;2.00;1.00;;;;;;;17.65;37.61;91917.25;4645724;30;20172;-94
2021/08/27 01:48:04;;;;;;;2.95;1.52;;;;;;;17.59;37.03;91905.38;4720566;30;20560;-91
2021/08/27 01:55:14;;;;;;;0.87;0.83;;;;;;;17.44;37.50;91924.66;4775292;29;20066;-93
2021/08/27 01:58:33;;;;;;;;;;;;;;;17.37;38.22;91927.16;4689836;30;20064;-91
2021/08/27 02:01:20;;;;;;;1.13;0.85;;;;;;;17.32;37.47;91927.41;4745121;30;19921;-92
2021/08/27 02:04:40;;;;;;;3.72;1.45;;;;;;;17.28;37.87;91922.03;4738960;29;20059;-93
2021/08/27 02:07:22;;;;;;;1.45;0.73;;;;;;;17.28;37.65;91920.13;4760167;30;20052;-91
2021/08/27 02:11:11;;;;;;;0.85;0.77;;;;;;;17.38;37.03;91947.19;4770724;30;20055;-92
2021/08/27 02:14:27;;;;;;;0.95;0.65;;;;;;;17.37;36.49;91929.78;4755510;30;20101;-92
2021/08/27 02:17:35;;;;;;;1.85;1.25;;;;;;;17.31;37.46;91929.25;4744966;30;20122;-93
2021/08/27 02:34:50;;;;;;;2.10;1.20;;;;;;;16.94;39.06;91939.31;4705960;30;20476;-91
2021/08/27 02:37:52;;;;;;;1.08;0.77;;;;;;;16.97;37.27;91943.91;4687585;30;20177;-91
2021/08/27 02:41:08;;;;;;;;;;;;;;;;;;;;;
2021/08/27 02:52:42;;;;;;;1.35;0.85;;;;;;;16.83;37.80;91928.44;4646512;30;20103;-91
2021/08/27 03:03:22;;;;;;;1.40;0.93;;;;;;;16.63;37.51;91938.84;4650009;30;20446;-91
2021/08/27 03:10:44;;;;;;;2.15;1.52;;;;;;;16.68;36.89;91934.41;4612829;30;20059;-91
2021/08/27 03:21:58;;;;;;;3.35;1.92;;;;;;;16.53;38.70;91933.28;4666183;30;20552;-92
2021/08/27 03:29:40;;;;;;;1.77;1.13;;;;;;;16.52;37.41;91931.72;4649199;30;20406;-92
2021/08/27 03:32:08;;;;;;;1.90;1.20;;;;;;;16.38;37.92;91927.59;4635341;30;20510;-91
2021/08/27 03:39:09;;;;;;;2.03;1.05;;;;;;;16.31;38.38;91930.03;4700399;30;20057;-91
2021/08/27 03:46:37;;;;;;;2.75;1.25;;;;;;;16.34;38.42;91939.16;4735952;30;20533;-93
2021/08/27 03:53:30;;;;;;;;;;;;;;;16.21;38.20;91935.78;4718552;30;20424;-91
2021/08/27 03:56:11;;;;;;;1.90;1.23;;;;;;;16.15;38.93;91932.59;4717213;30;19923;-90
2021/08/27 03:59:49;;;;;;;;;;;;;;;;;;;;;
2021/08/27 04:07:06;;;;;;;1.23;0.95;;;;;;;15.93;38.92;91947.03;4666590;30;20065;-91
2021/08/27 04:10:03;;;;;;;9.18;1.50;;;;;;;15.89;39.72;91950.69;4648700;30;20114;-92
2021/08/27 04:12:40;;;;;;;0.77;0.55;;;;;;;15.84;38.96;91940.34;4634456;30;20070;-91
2021/08/27 04:16:28;;;;;;;1.00;0.70;;;;;;;15.88;39.12;91951.78;4657904;30;20058;-93
2021/08/27 04:52:54;;;;;;;2.72;1.20;;;;;;;15.60;39.82;91987.50;4755667;29;20076;-92
2021/08/27 04:55:27;;;;;;;3.25;1.00;;;;;;;15.59;39.89;91991.22;4735457;30;20060;-92
2021/08/27 04:58:02;;;;;;;1.45;0.98;;;;;;;15.59;38.67;92004.41;4724445;30;20072;-94
2021/08/27 05:00:40;;;;;;;1.45;0.82;;;;;;;15.82;37.50;92006.66;4741334;30;20065;-92
2021/08/27 05:03:06;;;;;;;2.28;1.35;;;;;;;15.75;38.71;92007.19;4695574;30;20052;-91
2021/08/27 05:05:34;;;;;;;2.22;0.95;;;;;;;15.95;37.76;92002.91;4709223;30;20127;-93
2021/08/27 05:08:28;;;;;;;2.38;1.17;;;;;;;15.95;38.51;92008.19;4735833;30;20059;-92
2021/08/27 05:11:11;;;;;;;2.42;0.82;;;;;;;16.06;38.03;92005.13;4740073;30;20084;-93
2021/08/27 05:20:21;;;;;;;1.13;0.80;;;;;;;16.29;38.44;92043.16;4721737;30;20064;-78
2021/08/27 05:22:46;;;;;;;2.22;1.25;;;;;;;16.27;38.68;92052.53;4705489;30;20057;-78
2021/08/27 05:25:12;;;;;;;2.53;1.67;;;;;;;16.45;37.43;92040.59;4687165;30;20069;-78
2021/08/27 05:27:38;;;;;;;3.20;1.73;;;;;;;16.47;38.25;92059.53;4713057;30;20041;-78
2021/08/27 05:30:10;;;;;;;1.88;1.15;;;;;;;16.53;38.24;92063.50;4724487;30;20045;-78
2021/08/27 05:32:37;;;;;;;0.93;0.70;;;;;;;16.66;39.67;92061.59;4724616;30;20119;-78
2021/08/27 05:35:03;;;;;;;1.83;1.27;;;;;;;16.70;39.53;92073.03;4700513;30;20501;-78
2021/08/27 05:37:28;;;;;;;1.48;0.98;;;;;;;16.72;39.55;92076.13;4710909;30;20513;-78
2021/08/27 05:39:54;;;;;;;0.93;0.65;;;;;;;16.78;39.13;92071.38;4705728;30;20059;-77
2021/08/27 05:42:20;;;;;;;1.83;0.95;;;;;;;16.87;39.64;92082.63;4717092;30;20076;-77
2021/08/27 05:44:45;;;;;;;1.60;0.95;;;;;;;16.95;39.61;92088.88;4719781;30;20091;-77
2021/08/27 05:47:11;;;;;;;2.97;1.38;;;;;;;17.05;40.47;92080.47;4714707;30;20061;-77
2021/08/27 05:49:37;;;;;;;4.00;1.27;;;;;;;17.14;40.01;92085.63;4702440;30;20049;-77
2021/08/27 05:52:03;;;;;;;2.00;1.13;;;;;;;17.24;40.80;92091.19;4713862;30;20088;-77
2021/08/27 05:54:29;;;;;;;2.33;1.45;;;;;;;17.41;40.76;92092.03;4690499;30;20045;-77
2021/08/27 05:56:55;;;;;;;3.47;1.25;;;;;;;17.52;39.53;92095.72;4708921;30;20092;-77
2021/08/27 05:59:21;;;;;;;2.92;1.42;;;;;;;17.50;40.33;92097.19;4729947;30;20421;-77
2021/08/27 06:01:47;;;;;;;0.50;0.50;;;;;;;17.44;39.75;92101.94;4698787;30;20057;-77
2021/08/27 06:04:13;;;;;;;1.42;1.13;;;;;;;17.42;38.68;92101.50;4708338;30;20096;-76
2021/08/27 06:06:39;;;;;;;2.10;1.23;;;;;;;17.39;38.55;92107.47;4710833;30;20046;-77
2021/08/27 06:09:06;;;;;;;1.67;1.45;;;;;;;17.37;38.22;92099.88;4711976;30;20416;-77
2021/08/27 06:11:37;;;;;;;1.40;1.13;;;;;;;17.46;38.39;92112.94;4701866;30;20049;-77
2021/08/27 06:14:04;;;;;;;2.10;1.15;;;;;;;17.50;38.66;92107.75;4714333;30;20102;-76
2021/08/27 06:16:29;;;;;;;2.33;1.38;;;;;;;17.48;38.19;92116.03;4705599;30;20516;-77
2021/08/27 06:18:55;;;;;;;1.10;0.70;;;;;;;17.61;36.97;92106.94;4747198;30;20062;-77
2021/08/27 06:21:21;;;;;;;3.10;1.00;;;;;;;17.74;37.30;92117.44;4747769;30;20080;-77
2021/08/27 06:23:46;;;;;;;1.83;1.17;;;;;;;17.82;36.95;92106.72;4772486;30;20451;-77
2021/08/27 06:26:12;;;;;;;1.48;1.05;;;;;;;17.97;37.24;92121.09;4768281;30;20055;-77
2021/08/27 06:28:38;;;;;;;1.00;0.68;;;;;;;18.69;36.05;92114.84;4766619;30;20113;-77
2021/08/27 06:31:04;;;;;;;1.83;1.20;;;;;;;18.55;35.84;92122.47;4752392;30;20066;-78
2021/08/27 06:33:31;;;;;;;4.20;1.67;;;;;;;18.40;35.81;92111.53;4760047;30;20055;-78
2021/08/27 06:35:57;;;;;;;2.10;1.35;;;;;;;19.09;35.40;92121.78;4749728;30;20036;-78
2021/08/27 06:38:26;;;;;;;1.90;0.82;;;;;;;19.31;35.33;92129.06;4739627;30;20056;-77
2021/08/27 06:41:02;;;;;;;1.48;0.85;;;;;;;19.04;34.74;92117.50;4758269;30;20543;-77
2021/08/27 06:43:30;;;;;;;2.88;1.10;;;;;;;18.94;35.31;92123.38;4769521;30;20051;-77
2021/08/27 06:46:00;;;;;;;1.45;0.95;;;;;;;18.82;34.72;92121.59;4757712;30;20055;-78
2021/08/27 06:48:26;;;;;;;3.22;1.33;;;;;;;18.65;35.75;92121.94;4760012;30;20411;-77
2021/08/27 06:50:53;;;;;;;2.08;1.08;;;;;;;18.34;35.35;92122.75;4754737;30;20056;-76
2021/08/27 06:53:20;;;;;;;3.55;1.42;;;;;;;18.46;37.11;92126.06;4770996;30;20055;-76
2021/08/27 06:55:45;;;;;;;2.92;1.40;;;;;;;18.58;36.97;92127.84;4774959;30;20044;-77
2021/08/27 06:58:12;;;;;;;2.05;1.15;;;;;;;18.69;37.12;92123.56;4771668;30;20052;-76
2021/08/27 07:00:38;;;;;;;1.45;1.13;;;;;;;18.61;36.54;92129.81;4766619;30;20048;-77
2021/08/27 07:03:04;;;;;;;1.63;1.00;;;;;;;18.68;36.53;92123.91;4775283;30;20439;-77
2021/08/27 07:05:30;;;;;;;1.05;0.90;;;;;;;18.88;37.37;92130.06;4743090;30;20053;-77
2021/08/27 07:07:56;;;;;;;2.20;0.90;;;;;;;20.14;35.77;92139.34;4760049;30;20048;-77
2021/08/27 07:10:23;;;;;;;1.58;1.00;;;;;;;20.45;35.59;92148.22;4766156;30;20051;-77
2021/08/27 07:12:49;;;;;;;1.50;1.00;;;;;;;20.28;35.00;92138.06;4728818;30;20592;-77
2021/08/27 07:15:16;;;;;;;1.13;0.93;;;;;;;20.63;36.48;92147.78;4759254;30;20048;-77
2021/08/27 07:17:42;;;;;;;2.90;1.15;;;;;;;20.97;37.09;92152.06;4746106;30;20498;-79
2021/08/27 07:20:08;;;;;;;1.02;0.80;;;;;;;20.57;39.63;92156.03;4729976;30;20400;-78
2021/08/27 07:22:35;;;;;;;2.45;1.42;;;;;;;20.14;40.71;92157.19;4764631;30;20074;-79
2021/08/27 07:25:02;;;;;;;2.38;1.23;;;;;;;20.10;41.84;92153.69;4761861;30;20138;-80
2021/08/27 07:27:28;;;;;;;1.10;0.90;;;;;;;20.35;41.78;92159.44;4755005;30;20048;-79
2021/08/27 07:29:53;;;;;;;3.13;1.08;;;;;;;20.38;42.44;92154.19;4763460;30;20528;-79
2021/08/27 07:32:19;;;;;;;2.15;1.23;;;;;;;20.28;41.75;92156.66;4750358;30;20052;-79
2021/08/27 07:34:44;;;;;;;3.10;1.55;;;;;;;19.88;44.10;92155.97;4762842;30;20078;-80
2021/08/27 07:37:11;;;;;;;1.38;0.90;;;;;;;19.81;44.37;92163.03;4747193;30;20052;-81
2021/08/27 07:39:37;;;;;;;2.28;1.30;;;;;;;19.66;44.49;92165.41;4744365;30;20043;-82
2021/08/27 07:42:05;;;;;;;2.75;1.48;;;;;;;19.41;51.26;92169.44;4775617;30;20105;-82
2021/08/27 07:44:31;;;;;;;1.65;1.20;;;;;;;18.91;56.93;92169.13;4777885;30;20475;-81
2021/08/27 07:46:57;;;;;;;3.63;1.88;;;;;;;18.56;59.57;92177.03;4770020;30;20105;-80
2021/08/27 07:49:22;;;;;;;2.88;1.67;;;;;;;18.82;58.98;92176.50;4766637;30;20067;-80
2021/08/27 07:51:50;;;;;;;3.03;1.70;;;;;;;19.21;58.07;92177.38;4779438;30;20052;-81
2021/08/27 07:54:16;;;;;;;3.63;1.83;;;;;;;19.19;58.67;92187.56;4756361;30;20429;-81
2021/08/27 07:56:42;;;;;;;2.50;1.42;;;;;;;18.82;59.12;92179.16;4761025;30;20473;-81
2021/08/27 07:59:09;;;;;;;1.98;1.35;;;;;;;18.52;59.69;92187.53;4772998;30;20050;-80
2021/08/27 08:01:34;;;;;;;4.40;1.80;;;;;;;18.37;60.88;92186.41;4765709;30;20079;-79
2021/08/27 08:04:03;;;;;;;4.25;1.27;;;;;;;18.44;56.93;92191.09;4745013;30;20048;-80
2021/08/27 08:06:31;;;;;;;1.70;1.13;;;;;;;18.12;60.72;92182.38;4741178;30;20473;-79
2021/08/27 08:08:57;;;;;;;3.00;1.40;;;;;;;18.21;60.60;92193.56;4762830;30;20563;-78
2021/08/27 08:11:22;;;;;;;2.85;1.48;;;;;;;18.60;60.07;92188.47;4770337;30;20130;-77
2021/08/27 08:13:48;;;;;;;3.38;1.88;;;;;;;18.93;60.02;92188.13;4756100;30;20485;-78
2021/08/27 08:16:13;;;;;;;5.53;2.25;;;;;;;19.03;61.57;92186.84;4762175;30;20070;-77
2021/08/27 08:18:40;;;;;;;3.20;1.75;;;;;;;18.91;59.87;92185.84;4739363;30;20110;-77
2021/08/27 08:21:06;;;;;;;4.35;2.15;;;;;;;18.87;63.26;92192.94;4751816;30;20393;-76
2021/08/27 08:23:32;;;;;;;3.33;2.17;;;;;;;19.31;61.80;92190.09;4750294;30;20051;-78
2021/08/27 08:25:58;;;;;;;3.28;2.28;;;;;;;19.42;61.92;92197.53;4736174;30;20087;-80
2021/08/27 08:28:24;;;;;;;3.60;1.92;;;;;;;19.41;62.79;92188.78;4762808;30;20349;-77
2021/08/27 08:30:50;;;;;;;2.67;1.85;;;;;;;19.34;62.01;92192.06;4753414;30;20048;-77
2021/08/27 08:33:16;;;;;;;3.40;2.17;;;;;;;19.56;60.72;92195.91;4746956;30;20079;-79
2021/08/27 08:35:41;;;;;;;5.30;2.60;;;;;;;19.74;57.54;92195.53;4766457;30;20059;-78
2021/08/27 08:38:07;;;;;;;3.83;1.95;;;;;;;19.63;61.39;92194.53;4769025;30;20048;-78
2021/08/27 08:40:38;;;;;;;1.92;1.15;;;;;;;19.60;63.11;92198.66;4753581;30;20056;-79
2021/08/27 08:43:04;;;;;;;2.85;1.83;;;;;;;20.00;61.93;92197.56;4755237;30;20086;-78
2021/08/27 08:45:31;;;;;;;3.70;1.95;;;;;;;19.66;61.98;92199.91;4747838;30;20095;-79
2021/08/27 08:47:59;;;;;;;2.38;1.60;;;;;;;19.32;63.05;92201.50;4762920;30;20036;-79
2021/08/27 08:50:24;;;;;;;2.83;1.90;;;;;;;19.49;63.14;92201.06;4743007;30;20068;-78
2021/08/27 08:52:50;;;;;;;2.92;1.80;;;;;;;19.53;64.26;92209.88;4771558;30;20059;-81
2021/08/27 08:55:17;;;;;;;2.45;1.70;;;;;;;19.84;62.52;92204.84;4772438;30;20499;-79
2021/08/27 08:57:43;;;;;;;4.00;1.92;;;;;;;20.03;61.48;92212.78;4772836;30;20056;-79
2021/08/27 09:00:09;;;;;;;2.45;1.38;;;;;;;20.14;63.19;92207.66;4772194;30;20086;-80
2021/08/27 09:02:35;;;;;;;4.68;2.17;;;;;;;20.04;57.57;92206.38;4739546;30;20067;-82
2021/08/27 09:05:00;;;;;;;3.05;2.05;;;;;;;20.25;59.36;92207.88;4754971;30;21914;-82
2021/08/27 09:07:27;;;;;;;3.60;2.08;;;;;;;20.35;56.54;92216.03;4760215;30;20056;-79
2021/08/27 09:09:52;;;;;;;2.60;1.70;;;;;;;20.69;56.70;92216.25;4739497;30;20116;-79
2021/08/27 09:12:29;;;;;;;2.50;1.45;;;;;;;20.24;61.35;92216.94;4755021;30;20048;-80
2021/08/27 09:15:06;;;;;;;2.97;1.92;;;;;;;19.80;62.00;92220.69;4758069;30;20052;-79
2021/08/27 09:20:12;;;;;;;2.30;1.60;;;;;;;20.10;61.51;92220.13;4750634;30;20133;-79
2021/08/27 09:22:52;;;;;;;3.78;2.30;;;;;;;19.98;61.83;92221.03;4754150;30;20086;-80
2021/08/27 09:25:23;;;;;;;2.03;1.38;;;;;;;20.05;61.70;92223.81;4756684;30;20052;-79
2021/08/27 09:28:08;;;;;;;2.05;1.25;;;;;;;20.20;54.88;92227.53;4738427;30;20404;-81
2021/08/27 09:31:00;;;;;;;3.15;1.85;;;;;;;20.37;56.09;92223.63;4738301;30;20055;-83
2021/08/27 09:33:30;;;;;;;3.47;1.70;;;;;;;20.44;60.12;92226.41;4752811;30;20497;-81
2021/08/27 09:36:04;;;;;;;2.70;1.45;;;;;;;20.41;60.53;92227.13;4756112;30;20036;-83
2021/08/27 09:38:31;;;;;;;3.20;1.60;;;;;;;21.18;52.14;92230.66;4754019;30;20044;-82
2021/08/27 09:41:06;;;;;;;2.67;1.65;;;;;;;21.55;50.06;92220.19;4753109;30;20260;-85
2021/08/27 09:43:52;;;;;;;2.42;1.48;;;;;;;20.88;48.84;92235.94;4755279;30;20105;-84
2021/08/27 09:46:37;;;;;;;2.25;1.50;;;;;;;21.00;56.29;92231.16;4744327;30;20113;-85
2021/08/27 09:49:23;;;;;;;1.45;1.00;;;;;;;20.96;49.89;92227.69;4737722;30;20078;-83
2021/08/27 09:51:49;;;;;;;2.58;1.60;;;;;;;21.62;48.17;92219.53;4756092;30;20060;-84
2021/08/27 09:54:29;;;;;;;2.42;1.30;;;;;;;21.77;50.89;92229.22;4754686;30;20499;-83
2021/08/27 09:56:57;;;;;;;3.15;1.80;;;;;;;21.94;51.03;92222.56;4756862;30;20056;-83
2021/08/27 09:59:39;;;;;;;3.13;1.90;;;;;;;21.65;51.56;92226.78;4742942;30;20083;-78
2021/08/27 10:02:07;;;;;;;6.53;1.60;;;;;;;21.78;51.87;92232.66;4742173;30;20109;-80
2021/08/27 10:04:34;;;;;;;3.65;1.35;;;;;;;21.36;53.40;92222.94;4741285;30;20040;-78
2021/08/27 10:07:01;;;;;;;2.28;1.50;;;;;;;21.24;51.08;92223.16;4730639;30;20085;-80
2021/08/27 10:09:46;;;;;;;3.22;1.85;;;;;;;21.55;53.79;92230.84;4740499;30;20396;-81
2021/08/27 10:12:13;;;;;;;2.63;1.48;;;;;;;21.07;56.96;92224.41;4743227;30;20048;-78
2021/08/27 10:14:39;;;;;;;3.10;1.70;;;;;;;20.92;59.89;92224.22;4742776;30;20072;-79
2021/08/27 10:17:05;;;;;;;2.72;1.70;;;;;;;20.91;60.34;92222.66;4759891;30;20044;-79
2021/08/27 10:19:31;;;;;;;3.75;1.85;;;;;;;21.56;57.43;92219.06;4752234;30;20051;-75
2021/08/27 10:21:58;;;;;;;3.72;1.90;;;;;;;21.88;51.60;92215.25;4743317;30;20092;-77
2021/08/27 10:24:23;;;;;;;3.20;1.90;;;;;;;22.10;54.33;92218.94;4761559;30;20040;-77
2021/08/27 10:26:49;;;;;;;3.15;1.67;;;;;;;22.00;53.01;92225.69;4757749;30;20048;-80
2021/08/27 10:29:15;;;;;;;2.72;1.65;;;;;;;21.96;48.77;92219.56;4759371;30;20082;-78
2021/08/27 10:31:43;;;;;;;3.00;1.75;;;;;;;21.44;57.11;92224.63;4757714;30;20048;-80
2021/08/27 10:34:10;;;;;;;3.30;2.03;;;;;;;20.90;58.96;92220.38;4755472;30;20060;-80
2021/08/27 10:36:35;;;;;;;4.05;2.10;;;;;;;20.64;60.05;92224.50;4742280;30;20139;-80
2021/08/27 10:39:02;;;;;;;3.10;1.75;;;;;;;20.41;59.30;92221.81;4756354;30;20337;-80
2021/08/27 10:41:35;;;;;;;2.85;1.63;;;;;;;20.26;62.19;92217.38;4768602;30;20056;-80
2021/08/27 10:44:04;;;;;;;2.53;1.38;;;;;;;20.08;62.17;92219.69;4763865;30;20060;-79
2021/08/27 10:46:44;;;;;;;2.95;1.80;;;;;;;20.01;60.65;92215.00;4759733;30;20071;-82
2021/08/27 10:49:15;;;;;;;3.78;1.80;;;;;;;20.09;59.75;92215.94;4775201;30;20048;-81
2021/08/27 10:51:43;;;;;;;2.95;1.75;;;;;;;20.03;64.37;92215.44;4757623;30;20096;-80
2021/08/27 10:54:13;;;;;;;3.53;1.90;;;;;;;20.10;61.83;92218.22;4754558;30;20074;-81
2021/08/27 10:56:51;;;;;;;2.70;1.60;;;;;;;20.15;61.22;92209.19;4757956;30;20062;-80
2021/08/27 10:59:20;;;;;;;2.40;1.52;;;;;;;20.22;61.37;92219.19;4773375;30;20047;-81
2021/08/27 11:01:59;;;;;;;2.65;1.65;;;;;;;20.91;59.27;92219.25;4768812;30;20123;-80
2021/08/27 11:04:29;;;;;;;3.30;2.00;;;;;;;20.29;59.80;92222.75;4773380;30;20069;-80
2021/08/27 11:06:58;;;;;;;3.40;1.98;;;;;;;20.02;62.74;92215.78;4768343;30;20059;-81
2021/08/27 11:09:29;;;;;;;4.68;2.10;;;;;;;20.14;61.46;92218.31;4768413;30;20048;-81
2021/08/27 11:12:15;;;;;;;4.00;2.33;;;;;;;19.35;62.86;92222.03;4758768;30;20047;-80
2021/08/27 11:14:53;;;;;;;2.15;1.52;;;;;;;20.06;63.61;92219.28;4753626;30;20426;-79
2021/08/27 11:17:19;;;;;;;2.55;1.75;;;;;;;20.26;63.22;92214.72;4762234;30;20069;-80
2021/08/27 11:20:07;;;;;;;3.58;2.20;;;;;;;20.10;62.79;92218.22;4770299;30;20075;-80
2021/08/27 11:22:33;;;;;;;3.40;1.95;;;;;;;19.87;62.16;92210.22;4772954;30;20046;-81
2021/08/27 11:25:09;;;;;;;4.10;2.08;;;;;;;19.79;61.75;92207.75;4772194;30;20040;-80
2021/08/27 11:27:36;;;;;;;3.88;2.28;;;;;;;20.12;61.50;92207.25;4773713;30;20083;-80
2021/08/27 11:30:31;;;;;;;2.60;1.65;;;;;;;20.15;58.25;92220.63;4773109;30;20041;-80
2021/08/27 11:32:58;;;;;;;2.88;1.75;;;;;;;20.60;60.50;92207.72;4771400;30;20051;-80
2021/08/27 11:35:24;;;;;;;3.38;1.55;;;;;;;20.52;60.21;92211.38;4772748;30;20114;-79
2021/08/27 11:38:05;;;;;;;3.70;2.17;;;;;;;20.21;59.52;92202.47;4773207;30;20530;-80
2021/08/27 11:40:32;;;;;;;2.47;1.67;;;;;;;20.62;61.62;92212.69;4757029;30;20143;-81
2021/08/27 11:42:58;;;;;;;5.53;2.40;;;;;;;20.40;60.68;92209.66;4768486;30;20040;-80
2021/08/27 11:45:26;;;;;;;4.72;2.55;;;;;;;20.09;58.84;92210.63;4747911;30;20080;-81
2021/08/27 11:48:00;;;;;;;3.45;2.00;;;;;;;20.20;60.95;92210.78;4755154;30;20040;-81
2021/08/27 11:50:34;;;;;;;2.65;1.58;;;;;;;19.58;61.46;92216.03;4771120;30;20062;-80
2021/08/27 11:53:01;;;;;;;2.10;1.40;;;;;;;19.92;61.59;92209.91;4772852;30;20130;-80
2021/08/27 11:55:28;;;;;;;6.70;1.90;;;;;;;19.88;62.33;92217.06;4757537;30;20036;-80
2021/08/27 11:57:58;;;;;;;3.30;2.00;;;;;;;19.67;62.65;92216.59;4773834;30;20055;-81
2021/08/27 12:00:34;;;;;;;3.50;2.17;;;;;;;19.72;62.43;92216.34;4772321;30;20044;-81
2021/08/27 12:03:18;;;;;;;4.25;1.77;;;;;;;19.52;63.46;92218.97;4754558;30;20060;-80
2021/08/27 12:05:59;;;;;;;3.17;1.70;;;;;;;19.23;63.71;92214.94;4754821;30;20056;-79
2021/08/27 12:08:28;;;;;;;3.67;1.98;;;;;;;19.37;65.20;92221.69;4765128;30;20525;-80
2021/08/27 12:10:53;;;;;;;2.45;1.70;;;;;;;19.57;64.47;92220.59;4783548;30;20066;-81
2021/08/27 12:13:19;;;;;;;2.50;1.58;;;;;;;19.90;63.67;92224.66;4768229;30;20048;-77
2021/08/27 12:15:45;;;;;;;3.70;2.05;;;;;;;19.19;66.83;92219.41;4801855;30;20047;-79
2021/08/27 12:18:16;;;;;;;3.85;1.70;;;;;;;19.40;65.59;92223.63;4793931;30;20119;-79
2021/08/27 12:20:45;;;;;;;4.38;1.90;;;;;;;19.19;64.61;92234.56;4773730;30;20047;-80
2021/08/27 12:23:22;;;;;;;2.95;1.80;;;;;;;19.39;66.23;92222.88;4769323;30;20039;-81
2021/08/27 12:26:07;;;;;;;3.70;1.88;;;;;;;18.93;67.21;92222.59;4772085;30;20052;-80
2021/08/27 12:28:35;;;;;;;3.85;2.33;;;;;;;19.42;65.66;92227.47;4782094;30;20058;-81
2021/08/27 12:31:01;;;;;;;3.17;2.00;;;;;;;19.50;65.51;92234.47;4782094;30;20123;-78
2021/08/27 12:33:29;;;;;;;3.72;1.85;;;;;;;19.69;65.38;92227.69;4784547;30;20058;-79
2021/08/27 12:35:56;;;;;;;6.45;2.15;;;;;;;19.74;63.97;92230.81;4782630;30;20592;-80
2021/08/27 12:38:22;;;;;;;4.18;2.40;;;;;;;19.73;63.37;92231.19;4764570;30;20063;-79
2021/08/27 12:40:54;;;;;;;6.13;2.80;;;;;;;19.32;65.49;92228.78;4773022;30;20032;-79
2021/08/27 12:43:24;;;;;;;3.80;2.42;;;;;;;18.66;67.31;92232.16;4748031;30;20051;-80
2021/08/27 12:45:54;;;;;;;3.50;1.90;;;;;;;18.84;67.53;92235.25;4742216;30;20435;-79
2021/08/27 12:48:21;;;;;;;5.50;2.67;;;;;;;19.27;65.80;92230.94;4737317;30;20048;-78
2021/08/27 12:50:53;;;;;;;3.40;1.92;;;;;;;19.52;66.21;92236.78;4740762;30;20048;-77
2021/08/27 12:53:32;;;;;;;;;;;;;;;19.78;66.29;92228.25;4771819;30;20079;-79
2021/08/27 12:56:17;;;;;;;4.50;2.20;;;;;;;19.39;64.80;92232.72;4762600;30;20328;-78
2021/08/27 12:58:48;;;;;;;3.10;1.80;;;;;;;19.43;65.81;92233.53;4753991;30;20075;-79
2021/08/27 13:01:34;;;;;;;3.67;2.17;;;;;;;19.19;67.35;92242.53;4769169;30;20134;-79
2021/08/27 13:04:00;;;;;;;3.05;1.80;;;;;;;18.56;67.93;92238.75;4771451;30;20078;-78
2021/08/27 13:06:50;;;;;;;3.97;2.28;;;;;;;18.77;67.94;92240.38;4771216;30;20044;-78
2021/08/27 13:09:28;;;;;;;2.80;1.70;;;;;;;19.18;66.47;92233.78;4767473;30;20050;-77
2021/08/27 13:11:59;;;;;;;2.42;1.40;;;;;;;19.28;66.38;92241.22;4771982;30;20071;-78
2021/08/27 13:14:36;;;;;;;2.83;1.63;;;;;;;18.96;65.06;92231.75;4755395;30;20060;-79
2021/08/27 13:17:18;;;;;;;2.03;1.25;;;;;;;18.83;65.80;92223.91;4771347;30;20051;-78
2021/08/27 13:19:59;;;;;;;1.45;1.13;;;;;;;18.35;67.43;92225.75;4772742;30;20416;-80
2021/08/27 13:22:24;;;;;;;3.30;1.67;;;;;;;18.38;67.64;92226.94;4776083;30;20532;-77
2021/08/27 13:25:09;;;;;;;2.22;1.48;;;;;;;18.64;65.78;92231.72;4759492;30;20138;-79
2021/08/27 13:27:40;;;;;;;1.95;1.42;;;;;;;18.38;67.15;92240.97;4775756;30;20107;-78
2021/08/27 13:30:10;;;;;;;2.72;1.55;;;;;;;18.04;68.65;92232.50;4775612;30;20503;-78
2021/08/27 13:32:42;;;;;;;1.95;1.25;;;;;;;18.39;67.56;92236.41;4759401;30;20062;-79
2021/08/27 13:35:11;;;;;;;;;;;;;;;18.63;66.66;92235.50;4775830;30;20047;-78
2021/08/27 13:37:37;;;;;;;2.80;1.52;;;;;;;18.63;66.33;92233.63;4773988;30;19924;-79
2021/08/27 13:40:03;;;;;;;3.40;1.88;;;;;;;18.98;65.31;92225.00;4759911;30;20127;-77
2021/08/27 13:42:29;;;;;;;1.42;0.93;;;;;;;19.21;64.60;92225.13;4759920;30;20522;-79
2021/08/27 13:44:54;;;;;;;2.92;1.55;;;;;;;19.58;63.64;92232.72;4775160;30;20063;-79
2021/08/27 13:47:23;;;;;;;1.63;1.27;;;;;;;19.15;64.86;92226.50;4775113;30;20054;-79
2021/08/27 13:49:51;;;;;;;1.52;1.10;;;;;;;19.14;64.98;92228.41;4760330;30;20067;-77
2021/08/27 13:52:17;;;;;;;2.38;1.42;;;;;;;19.29;64.08;92224.16;4745529;30;20384;-81
2021/08/27 13:54:43;;;;;;;3.65;0.90;;;;;;;19.58;63.97;92219.47;4756163;30;20063;-82
2021/08/27 13:57:08;;;;;;;2.15;1.38;;;;;;;19.34;62.58;92221.25;4757802;30;20051;-81
2021/08/27 13:59:34;;;;;;;2.40;1.35;;;;;;;19.81;62.33;92211.59;4743430;30;20071;-79
2021/08/27 14:02:00;;;;;;;1.83;0.93;;;;;;;19.94;63.87;92214.88;4762133;30;20063;-79
2021/08/27 14:04:25;;;;;;;3.30;1.25;;;;;;;19.95;62.47;92217.19;4763985;30;20120;-78
2021/08/27 14:06:51;;;;;;;5.72;1.02;;;;;;;19.84;61.73;92231.41;4758963;30;20044;-78
2021/08/27 14:09:19;;;;;;;1.25;0.88;;;;;;;19.90;62.87;92216.69;4760099;30;20503;-80
2021/08/27 14:11:45;;;;;;;1.58;0.93;;;;;;;19.71;61.62;92220.91;4764276;30;20048;-77
2021/08/27 14:14:10;;;;;;;2.75;1.67;;;;;;;19.71;61.95;92215.59;4754879;30;20126;-77
2021/08/27 14:16:39;;;;;;;2.80;1.05;;;;;;;19.72;61.49;92214.50;4755730;30;20672;-77
2021/08/27 14:19:05;;;;;;;1.08;0.98;;;;;;;19.66;61.19;92215.84;4755124;30;20067;-77
2021/08/27 14:21:30;;;;;;;0.47;0.47;;;;;;;19.65;61.31;92218.84;4773696;30;20063;-77
2021/08/27 14:23:56;;;;;;;1.30;1.02;;;;;;;19.90;59.60;92204.19;4743522;30;20052;-77
2021/08/27 14:26:40;;;;;;;1.23;0.90;;;;;;;19.22;62.74;92209.97;4758118;30;20044;-77
2021/08/27 14:29:06;;;;;;;1.02;0.90;;;;;;;19.30;62.27;92209.78;4773923;30;20083;-78
2021/08/27 14:31:33;;;;;;;1.70;1.10;;;;;;;19.41;63.34;92211.88;4772089;30;20050;-77
2021/08/27 14:33:59;;;;;;;0.95;0.82;;;;;;;19.61;62.45;92207.38;4771666;30;20056;-78
2021/08/27 14:36:25;;;;;;;1.77;1.17;;;;;;;19.35;62.78;92220.13;4771871;30;20054;-77
2021/08/27 14:38:52;;;;;;;2.45;1.45;;;;;;;19.11;63.63;92213.16;4772366;30;20047;-77
2021/08/27 14:41:18;;;;;;;1.33;0.90;;;;;;;19.05;64.91;92213.75;4757232;30;20044;-80
2021/08/27 14:43:44;;;;;;;1.73;1.02;;;;;;;19.44;64.61;92204.00;4774117;30;20040;-76
2021/08/27 14:46:10;;;;;;;1.90;1.38;;;;;;;19.70;63.21;92211.41;4742427;30;20043;-77
2021/08/27 14:48:39;;;;;;;4.68;1.15;;;;;;;19.47;63.52;92218.47;4773351;30;20129;-77
2021/08/27 14:51:05;;;;;;;1.95;1.10;;;;;;;19.27;63.70;92215.81;4774186;30;20048;-81
2021/08/27 14:53:31;;;;;;;1.77;1.20;;;;;;;19.72;62.40;92211.03;4759847;30;20501;-79
2021/08/27 14:55:56;;;;;;;2.15;1.38;;;;;;;19.48;63.82;92209.41;4755952;30;20079;-78
2021/08/27 14:58:22;;;;;;;1.30;1.08;;;;;;;19.44;62.66;92213.88;4755469;30;20048;-78
2021/08/27 15:00:48;;;;;;;1.42;0.90;;;;;;;18.76;64.63;92207.81;4763659;30;20148;-78
2021/08/27 15:03:14;;;;;;;1.50;1.08;;;;;;;17.99;68.12;92218.72;4753925;30;20048;-77
2021/08/27 15:05:40;;;;;;;1.48;1.05;;;;;;;18.04;68.00;92221.16;4764703;30;20044;-77
2021/08/27 15:08:06;;;;;;;2.03;1.15;;;;;;;18.01;68.00;92221.81;4770137;30;20052;-76
2021/08/27 15:10:35;;;;;;;3.90;1.70;;;;;;;17.89;68.11;92220.00;4758326;30;20089;-77
2021/08/27 15:13:03;;;;;;;2.70;1.58;;;;;;;18.15;67.93;92216.13;4755415;30;20131;-77
2021/08/27 15:15:28;;;;;;;2.95;0.90;;;;;;;18.52;65.56;92222.75;4755151;30;20048;-77
2021/08/27 15:17:57;;;;;;;0.93;0.77;;;;;;;18.71;64.50;92216.78;4768650;30;20124;-77
2021/08/27 15:20:24;;;;;;;2.60;1.50;;;;;;;18.37;65.97;92228.81;4770939;30;20058;-77
2021/08/27 15:22:50;;;;;;;2.33;1.33;;;;;;;17.92;67.64;92224.59;4754821;30;20138;-78
2021/08/27 15:25:16;;;;;;;2.15;1.42;;;;;;;18.12;67.80;92222.09;4770729;30;20048;-77
2021/08/27 15:27:42;;;;;;;2.50;1.58;;;;;;;17.86;68.07;92220.69;4755114;30;20092;-77
2021/08/27 15:30:08;;;;;;;1.45;1.10;;;;;;;17.96;68.52;92230.00;4771154;30;20397;-77
2021/08/27 15:32:34;;;;;;;1.63;1.20;;;;;;;17.71;68.55;92224.78;4754683;30;20052;-76